createdAt,value
2022-08-14T07:24:21.711Z,25.00
2022-08-14T07:28:31.279Z,22.10
2022-08-14T07:32:35.898Z,22.10
2022-08-14T07:36:38.212Z,22.10
2022-08-14T07:41:04.130Z,22.30
2022-08-14T07:45:14.144Z,22.40
2022-08-14T07:49:17.636Z,22.70
2022-08-14T07:53:20.644Z,22.90
2022-08-14T07:57:25.647Z,23.10
2022-08-14T08:01:29.956Z,23.30
2022-08-14T08:05:32.406Z,23.50
2022-08-14T08:09:36.911Z,23.40
2022-08-14T08:13:49.044Z,23.70
2022-08-14T08:18:01.277Z,24.00
2022-08-14T08:22:06.315Z,24.20
2022-08-14T08:26:08.528Z,24.30
2022-08-14T08:30:14.447Z,24.70
2022-08-14T08:34:18.293Z,25.00
2022-08-14T08:39:18.097Z,25.20
2022-08-14T08:42:45.610Z,25.00
2022-08-14T08:47:00.017Z,24.90
2022-08-14T08:51:03.600Z,25.00
2022-08-14T08:55:08.365Z,25.20
2022-08-14T08:59:20.409Z,25.40
2022-08-14T09:03:27.825Z,25.90
2022-08-14T09:07:30.609Z,26.20
2022-08-14T09:11:33.377Z,26.00
2022-08-14T09:15:42.682Z,26.20
2022-08-14T09:19:48.648Z,26.00
2022-08-14T09:24:28.245Z,26.20
2022-08-14T09:28:17.872Z,26.50
2022-08-14T09:32:58.179Z,26.50
2022-08-14T09:37:11.756Z,27.00
2022-08-14T09:42:17.581Z,26.90
2022-08-14T09:45:53.916Z,26.70
2022-08-14T09:49:56.070Z,26.50
2022-08-14T09:54:19.461Z,26.70
2022-08-14T09:58:37.469Z,27.00
2022-08-14T10:02:46.172Z,27.30
2022-08-14T10:06:48.469Z,27.20
2022-08-14T10:10:57.309Z,27.10
2022-08-14T10:15:15.983Z,27.20
2022-08-14T10:19:19.098Z,27.70
2022-08-14T10:23:26.011Z,27.80
2022-08-14T10:27:31.058Z,28.00
2022-08-14T10:31:40.481Z,28.10
2022-08-14T10:35:47.979Z,28.30
2022-08-14T10:40:05.319Z,28.40
2022-08-14T10:44:21.238Z,28.60
2022-08-14T10:48:36.654Z,28.80
2022-08-14T10:52:42.278Z,29.00
2022-08-14T10:56:45.134Z,29.30
2022-08-14T11:00:58.726Z,28.90
2022-08-14T11:05:05.256Z,28.50
2022-08-14T11:09:12.476Z,28.60
2022-08-14T11:13:20.750Z,28.70
2022-08-14T11:17:32.042Z,28.90
2022-08-14T11:21:36.861Z,29.10
2022-08-14T11:25:53.249Z,29.00
2022-08-14T11:30:00.361Z,29.50
2022-08-14T11:34:32.266Z,30.00
2022-08-14T11:38:39.471Z,29.70
2022-08-14T11:42:58.381Z,29.50
2022-08-14T11:47:07.027Z,30.00
2022-08-14T11:51:16.963Z,30.40
2022-08-14T11:55:23.669Z,30.20
2022-08-14T11:59:32.757Z,30.30
2022-08-14T12:03:45.931Z,30.30
2022-08-14T12:07:56.619Z,30.40
2022-08-14T12:12:00.059Z,30.00
2022-08-14T12:16:06.514Z,30.20
2022-08-14T12:20:15.101Z,30.20
2022-08-14T12:24:36.382Z,30.10
2022-08-14T12:28:59.824Z,30.30
2022-08-14T12:33:03.117Z,30.50
2022-08-14T12:37:06.647Z,30.90
2022-08-14T12:41:21.180Z,30.80
2022-08-14T12:45:31.512Z,30.60
2022-08-14T12:49:34.387Z,30.70
2022-08-14T12:53:38.259Z,30.80
2022-08-14T12:57:45.141Z,30.90
2022-08-14T13:02:03.140Z,31.00
2022-08-14T13:06:09.761Z,30.50
2022-08-14T13:10:46.678Z,30.30
2022-08-14T13:14:39.375Z,30.10
2022-08-14T13:18:42.880Z,30.00
2022-08-14T13:22:49.224Z,30.00
2022-08-14T13:26:53.178Z,30.00
2022-08-14T13:31:00.570Z,29.90
2022-08-14T13:35:05.985Z,29.80
2022-08-14T13:39:15.826Z,29.80
2022-08-14T13:43:18.507Z,30.00
2022-08-14T13:47:25.527Z,30.20
2022-08-14T13:51:35.564Z,30.10
2022-08-14T13:55:37.683Z,30.10
2022-08-14T13:59:45.516Z,30.00
2022-08-14T14:03:53.701Z,29.90
2022-08-14T14:07:56.121Z,29.90
2022-08-14T14:11:59.635Z,29.70
2022-08-14T14:16:03.936Z,29.70
2022-08-14T14:20:15.092Z,29.30
2022-08-14T14:24:35.940Z,29.40
2022-08-14T14:28:40.295Z,29.20
2022-08-14T14:33:02.263Z,29.00
2022-08-14T14:37:13.030Z,29.30
2022-08-14T14:41:16.119Z,29.10
2022-08-14T14:45:19.708Z,29.30
2022-08-14T14:49:25.963Z,29.30
2022-08-14T14:53:47.330Z,29.10
2022-08-14T14:57:52.216Z,29.00
2022-08-14T15:02:04.897Z,29.00
2022-08-14T15:06:08.030Z,29.10
2022-08-14T15:10:27.658Z,29.20
2022-08-14T15:14:55.989Z,29.10
2022-08-14T15:18:55.873Z,29.00
2022-08-14T15:23:01.088Z,28.90
2022-08-14T15:27:21.412Z,28.80
2022-08-14T15:31:28.803Z,28.80
2022-08-14T15:35:34.098Z,28.80
2022-08-14T15:39:38.200Z,28.80
2022-08-14T15:43:43.253Z,28.50
2022-08-14T15:47:47.746Z,28.50
2022-08-14T15:51:53.959Z,28.40
2022-08-14T15:55:57.069Z,28.40
2022-08-14T16:00:02.526Z,28.40
2022-08-14T16:04:07.314Z,28.30
2022-08-14T16:08:27.418Z,28.30
2022-08-14T16:12:41.097Z,28.20
2022-08-14T16:17:00.804Z,28.10
2022-08-14T16:21:08.456Z,28.10
2022-08-14T16:25:15.595Z,28.10
2022-08-14T16:29:21.538Z,28.00
2022-08-14T16:33:27.814Z,28.10
2022-08-14T16:37:48.331Z,28.00
2022-08-14T16:41:52.743Z,28.00
2022-08-14T16:45:55.045Z,28.10
2022-08-14T16:50:03.911Z,28.20
2022-08-14T16:54:34.149Z,28.20
2022-08-14T16:58:31.565Z,28.30
2022-08-14T17:02:36.101Z,28.50
2022-08-14T17:06:45.439Z,28.70
2022-08-14T17:11:10.080Z,29.00
2022-08-14T17:15:14.908Z,29.30
2022-08-14T17:19:17.748Z,29.70
2022-08-14T17:23:30.052Z,30.20
2022-08-14T17:27:32.708Z,30.10
2022-08-14T17:31:58.757Z,29.20
2022-08-14T17:36:09.529Z,28.30
2022-08-14T17:40:17.066Z,27.60
2022-08-14T17:44:33.717Z,27.10
2022-08-14T17:49:13.970Z,26.70
2022-08-14T17:53:06.255Z,26.40
2022-08-14T17:57:16.046Z,26.10
2022-08-14T18:01:23.564Z,25.90
2022-08-14T18:06:06.961Z,25.70
2022-08-14T18:09:57.618Z,25.50
2022-08-14T18:14:04.414Z,25.30
2022-08-14T18:18:09.357Z,25.20
2022-08-14T18:22:23.613Z,25.00
2022-08-14T18:26:37.123Z,24.70
2022-08-14T18:30:58.010Z,24.40
2022-08-14T18:35:02.926Z,24.10
2022-08-14T18:39:25.231Z,23.70
2022-08-14T18:43:59.314Z,23.50
2022-08-14T18:48:33.305Z,23.30
2022-08-14T18:52:50.805Z,23.00
2022-08-14T18:56:58.586Z,22.70
2022-08-14T19:01:02.134Z,22.60
2022-08-14T19:05:09.685Z,22.40
2022-08-14T19:09:41.531Z,22.30
2022-08-14T19:13:51.338Z,22.10
2022-08-14T19:18:14.919Z,22.00
2022-08-14T19:22:29.930Z,21.80
2022-08-14T19:26:36.075Z,21.70
2022-08-14T19:30:39.305Z,21.60
2022-08-14T19:34:52.142Z,21.40
2022-08-14T19:39:01.598Z,21.30
2022-08-14T19:43:06.621Z,21.20
2022-08-14T19:47:12.093Z,21.20
2022-08-14T19:51:15.755Z,21.20
2022-08-14T19:55:20.661Z,21.20
2022-08-14T19:59:36.630Z,21.10
2022-08-14T20:04:00.072Z,21.10
2022-08-14T20:08:06.196Z,21.10
2022-08-14T20:12:28.630Z,21.10
2022-08-14T20:16:41.321Z,21.10
2022-08-14T20:20:44.683Z,21.20
2022-08-14T20:24:47.310Z,21.20
2022-08-14T20:28:54.564Z,21.20
2022-08-14T20:32:58.455Z,21.20
2022-08-14T20:37:02.457Z,21.30
2022-08-14T20:41:10.539Z,21.30
2022-08-14T20:45:15.483Z,21.40
2022-08-14T20:49:18.814Z,21.50
2022-08-14T20:53:31.678Z,21.50
2022-08-14T20:57:43.390Z,21.60
2022-08-14T21:01:50.187Z,21.60
2022-08-14T21:05:56.860Z,21.50
2022-08-14T21:10:33.148Z,21.50
2022-08-14T21:14:29.131Z,21.50
2022-08-14T21:18:47.563Z,21.50
2022-08-14T21:22:50.050Z,21.40
2022-08-14T21:27:04.321Z,21.30
2022-08-14T21:31:15.327Z,21.20
2022-08-14T21:35:20.489Z,21.10
2022-08-14T21:39:25.184Z,21.00
2022-08-14T21:43:28.453Z,21.00
2022-08-14T21:47:32.097Z,20.90
2022-08-14T21:51:54.539Z,20.80
2022-08-14T21:55:59.563Z,20.70
2022-08-14T22:00:02.118Z,20.60
2022-08-14T22:04:33.408Z,20.50
2022-08-14T22:08:32.333Z,20.40
2022-08-14T22:12:45.337Z,20.40
2022-08-14T22:17:01.643Z,20.30
2022-08-14T22:21:16.675Z,20.20
2022-08-14T22:25:21.871Z,20.10
2022-08-14T22:29:23.990Z,20.00
2022-08-14T22:33:30.873Z,20.00
2022-08-14T22:37:33.857Z,20.00
2022-08-14T22:41:42.784Z,20.10
2022-08-14T22:45:55.632Z,20.10
2022-08-14T22:50:31.560Z,20.20
2022-08-14T22:54:52.852Z,20.20
2022-08-14T22:58:46.356Z,20.20
2022-08-14T23:02:57.428Z,20.20
2022-08-14T23:07:02.111Z,20.20
2022-08-14T23:11:08.382Z,20.20
2022-08-14T23:15:14.069Z,20.20
2022-08-14T23:19:18.105Z,20.20
2022-08-14T23:23:22.561Z,20.20
2022-08-14T23:27:28.373Z,20.20
2022-08-14T23:31:37.099Z,20.30
2022-08-14T23:35:59.058Z,20.40
2022-08-14T23:40:02.084Z,20.60
2022-08-14T23:44:05.586Z,20.70
2022-08-14T23:48:12.413Z,20.80
2022-08-14T23:52:56.032Z,20.90
2022-08-14T23:56:36.738Z,21.00
